sensor_id;sensor_type;location;lat;lon;timestamp;temperature;humidity
16643;DHT22;8435;52.184;5.406;2023-07-31T00:00:43;18.40;99.90
16643;DHT22;8435;52.184;5.406;2023-07-31T00:03:12;18.40;99.90
16643;DHT22;8435;52.184;5.406;2023-07-31T00:05:39;18.40;99.90
16643;DHT22;8435;52.184;5.406;2023-07-31T00:08:05;18.40;99.90
16643;DHT22;8435;52.184;5.406;2023-07-31T00:10:32;18.50;99.90
16643;DHT22;8435;52.184;5.406;2023-07-31T00:13:00;18.50;99.90
16643;DHT22;8435;52.184;5.406;2023-07-31T00:15:27;18.50;99.90
16643;DHT22;8435;52.184;5.406;2023-07-31T00:17:55;18.60;99.90
16643;DHT22;8435;52.184;5.406;2023-07-31T00:20:22;18.60;99.90
16643;DHT22;8435;52.184;5.406;2023-07-31T00:22:49;18.60;99.90
16643;DHT22;8435;52.184;5.406;2023-07-31T00:25:16;18.60;99.90
16643;DHT22;8435;52.184;5.406;2023-07-31T00:27:43;18.60;99.90
16643;DHT22;8435;52.184;5.406;2023-07-31T00:30:11;18.70;99.90
16643;DHT22;8435;52.184;5.406;2023-07-31T00:32:40;18.70;99.90
16643;DHT22;8435;52.184;5.406;2023-07-31T00:35:08;18.70;99.90
16643;DHT22;8435;52.184;5.406;2023-07-31T00:37:35;18.70;99.90
16643;DHT22;8435;52.184;5.406;2023-07-31T00:40:02;18.70;99.90
16643;DHT22;8435;52.184;5.406;2023-07-31T00:42:32;18.80;99.90
16643;DHT22;8435;52.184;5.406;2023-07-31T00:44:58;18.80;99.90
16643;DHT22;8435;52.184;5.406;2023-07-31T00:47:26;18.80;99.90
16643;DHT22;8435;52.184;5.406;2023-07-31T00:49:53;18.80;99.90
16643;DHT22;8435;52.184;5.406;2023-07-31T00:52:21;18.90;99.90
16643;DHT22;8435;52.184;5.406;2023-07-31T00:54:49;18.90;99.90
16643;DHT22;8435;52.184;5.406;2023-07-31T00:57:16;18.90;99.90
16643;DHT22;8435;52.184;5.406;2023-07-31T00:59:43;18.90;99.90
16643;DHT22;8435;52.184;5.406;2023-07-31T01:02:12;18.90;99.90
16643;DHT22;8435;52.184;5.406;2023-07-31T01:04:39;19.00;99.90
16643;DHT22;8435;52.184;5.406;2023-07-31T01:07:11;19.00;99.90
16643;DHT22;8435;52.184;5.406;2023-07-31T01:09:44;19.00;99.90
16643;DHT22;8435;52.184;5.406;2023-07-31T01:12:14;19.00;99.90
16643;DHT22;8435;52.184;5.406;2023-07-31T01:17:28;19.00;99.90
16643;DHT22;8435;52.184;5.406;2023-07-31T01:20:00;19.00;99.90
16643;DHT22;8435;52.184;5.406;2023-07-31T01:22:40;19.10;99.90
16643;DHT22;8435;52.184;5.406;2023-07-31T01:25:21;19.10;99.90
16643;DHT22;8435;52.184;5.406;2023-07-31T01:28:00;19.10;99.90
16643;DHT22;8435;52.184;5.406;2023-07-31T01:30:31;19.10;99.90
16643;DHT22;8435;52.184;5.406;2023-07-31T01:33:01;19.10;99.90
16643;DHT22;8435;52.184;5.406;2023-07-31T01:35:32;19.10;99.90
16643;DHT22;8435;52.184;5.406;2023-07-31T01:37:59;19.10;99.90
16643;DHT22;8435;52.184;5.406;2023-07-31T01:40:26;19.10;99.90
16643;DHT22;8435;52.184;5.406;2023-07-31T01:42:54;19.00;99.90
16643;DHT22;8435;52.184;5.406;2023-07-31T01:45:21;19.00;99.90
16643;DHT22;8435;52.184;5.406;2023-07-31T01:47:48;19.10;99.90
16643;DHT22;8435;52.184;5.406;2023-07-31T01:50:15;19.10;99.90
16643;DHT22;8435;52.184;5.406;2023-07-31T01:52:42;19.00;99.90
16643;DHT22;8435;52.184;5.406;2023-07-31T01:55:11;19.00;99.90
16643;DHT22;8435;52.184;5.406;2023-07-31T01:57:38;19.00;99.90
16643;DHT22;8435;52.184;5.406;2023-07-31T02:00:07;19.00;99.90
16643;DHT22;8435;52.184;5.406;2023-07-31T02:02:34;19.00;99.90
16643;DHT22;8435;52.184;5.406;2023-07-31T02:05:01;19.00;99.90
16643;DHT22;8435;52.184;5.406;2023-07-31T02:07:28;19.00;99.90
16643;DHT22;8435;52.184;5.406;2023-07-31T02:09:55;19.00;99.90
16643;DHT22;8435;52.184;5.406;2023-07-31T02:12:22;19.10;99.90
16643;DHT22;8435;52.184;5.406;2023-07-31T02:14:48;19.10;99.90
16643;DHT22;8435;52.184;5.406;2023-07-31T02:17:17;19.10;99.90
16643;DHT22;8435;52.184;5.406;2023-07-31T02:19:44;19.10;99.90
16643;DHT22;8435;52.184;5.406;2023-07-31T02:22:11;19.20;99.90
16643;DHT22;8435;52.184;5.406;2023-07-31T02:24:37;19.20;99.90
16643;DHT22;8435;52.184;5.406;2023-07-31T02:27:07;19.20;99.90
16643;DHT22;8435;52.184;5.406;2023-07-31T02:29:36;19.20;99.90
16643;DHT22;8435;52.184;5.406;2023-07-31T02:32:03;19.20;99.90
16643;DHT22;8435;52.184;5.406;2023-07-31T02:34:31;19.20;99.90
16643;DHT22;8435;52.184;5.406;2023-07-31T02:36:59;19.20;99.90
16643;DHT22;8435;52.184;5.406;2023-07-31T02:39:26;19.30;99.90
16643;DHT22;8435;52.184;5.406;2023-07-31T02:41:53;19.30;99.90
16643;DHT22;8435;52.184;5.406;2023-07-31T02:44:20;19.30;99.90
16643;DHT22;8435;52.184;5.406;2023-07-31T02:46:47;19.30;99.90
16643;DHT22;8435;52.184;5.406;2023-07-31T02:49:14;19.30;99.90
16643;DHT22;8435;52.184;5.406;2023-07-31T02:51:43;19.30;99.90
16643;DHT22;8435;52.184;5.406;2023-07-31T02:54:11;19.40;99.90
16643;DHT22;8435;52.184;5.406;2023-07-31T02:56:38;19.30;99.90
16643;DHT22;8435;52.184;5.406;2023-07-31T02:59:05;19.40;99.90
16643;DHT22;8435;52.184;5.406;2023-07-31T03:01:32;19.40;99.90
16643;DHT22;8435;52.184;5.406;2023-07-31T03:03:59;19.30;99.90
16643;DHT22;8435;52.184;5.406;2023-07-31T03:06:26;19.30;99.90
16643;DHT22;8435;52.184;5.406;2023-07-31T03:08:54;19.40;99.90
16643;DHT22;8435;52.184;5.406;2023-07-31T03:11:24;19.40;99.90
16643;DHT22;8435;52.184;5.406;2023-07-31T03:13:51;19.40;99.90
16643;DHT22;8435;52.184;5.406;2023-07-31T03:16:18;19.40;99.90
16643;DHT22;8435;52.184;5.406;2023-07-31T03:18:45;19.40;99.90
16643;DHT22;8435;52.184;5.406;2023-07-31T03:21:12;19.40;99.90
16643;DHT22;8435;52.184;5.406;2023-07-31T03:23:40;19.40;99.90
16643;DHT22;8435;52.184;5.406;2023-07-31T03:26:10;19.40;99.90
16643;DHT22;8435;52.184;5.406;2023-07-31T03:28:37;19.40;99.90
16643;DHT22;8435;52.184;5.406;2023-07-31T03:31:04;19.40;99.90
16643;DHT22;8435;52.184;5.406;2023-07-31T03:33:31;19.40;99.90
16643;DHT22;8435;52.184;5.406;2023-07-31T03:35:58;19.40;99.90
16643;DHT22;8435;52.184;5.406;2023-07-31T03:38:24;19.40;99.90
16643;DHT22;8435;52.184;5.406;2023-07-31T03:40:51;19.40;99.90
16643;DHT22;8435;52.184;5.406;2023-07-31T03:43:20;19.40;99.90
16643;DHT22;8435;52.184;5.406;2023-07-31T03:45:46;19.50;99.90
16643;DHT22;8435;52.184;5.406;2023-07-31T03:48:14;19.40;99.90
16643;DHT22;8435;52.184;5.406;2023-07-31T03:50:41;19.40;99.90
16643;DHT22;8435;52.184;5.406;2023-07-31T03:53:08;19.40;99.90
16643;DHT22;8435;52.184;5.406;2023-07-31T03:55:35;19.40;99.90
16643;DHT22;8435;52.184;5.406;2023-07-31T03:58:02;19.40;99.90
16643;DHT22;8435;52.184;5.406;2023-07-31T04:00:32;19.40;99.90
16643;DHT22;8435;52.184;5.406;2023-07-31T04:02:59;19.40;99.90
16643;DHT22;8435;52.184;5.406;2023-07-31T04:05:26;19.40;99.90
16643;DHT22;8435;52.184;5.406;2023-07-31T04:07:52;19.40;99.90
16643;DHT22;8435;52.184;5.406;2023-07-31T04:10:19;19.40;99.90
16643;DHT22;8435;52.184;5.406;2023-07-31T04:12:46;19.40;99.90
16643;DHT22;8435;52.184;5.406;2023-07-31T04:15:13;19.40;99.90
16643;DHT22;8435;52.184;5.406;2023-07-31T04:17:41;19.40;99.90
16643;DHT22;8435;52.184;5.406;2023-07-31T04:20:09;19.40;99.90
16643;DHT22;8435;52.184;5.406;2023-07-31T04:22:36;19.40;99.90
16643;DHT22;8435;52.184;5.406;2023-07-31T04:25:04;19.40;99.90
16643;DHT22;8435;52.184;5.406;2023-07-31T04:27:31;19.40;99.90
16643;DHT22;8435;52.184;5.406;2023-07-31T04:30:00;19.40;99.90
16643;DHT22;8435;52.184;5.406;2023-07-31T04:32:26;19.40;99.90
16643;DHT22;8435;52.184;5.406;2023-07-31T04:34:56;19.30;99.90
16643;DHT22;8435;52.184;5.406;2023-07-31T04:37:23;19.40;99.90
16643;DHT22;8435;52.184;5.406;2023-07-31T04:39:50;19.30;99.90
16643;DHT22;8435;52.184;5.406;2023-07-31T04:42:17;19.30;99.90
16643;DHT22;8435;52.184;5.406;2023-07-31T04:44:45;19.30;99.90
16643;DHT22;8435;52.184;5.406;2023-07-31T04:47:12;19.30;99.90
16643;DHT22;8435;52.184;5.406;2023-07-31T04:49:41;19.30;99.90
16643;DHT22;8435;52.184;5.406;2023-07-31T04:52:09;19.30;99.90
16643;DHT22;8435;52.184;5.406;2023-07-31T04:54:35;19.30;99.90
16643;DHT22;8435;52.184;5.406;2023-07-31T04:57:03;19.30;99.90
16643;DHT22;8435;52.184;5.406;2023-07-31T04:59:30;19.20;99.90
16643;DHT22;8435;52.184;5.406;2023-07-31T05:01:57;19.20;99.90
16643;DHT22;8435;52.184;5.406;2023-07-31T05:04:24;19.20;99.90
16643;DHT22;8435;52.184;5.406;2023-07-31T05:06:50;19.20;99.90
16643;DHT22;8435;52.184;5.406;2023-07-31T05:09:19;19.20;99.90
16643;DHT22;8435;52.184;5.406;2023-07-31T05:11:46;19.20;99.90
16643;DHT22;8435;52.184;5.406;2023-07-31T05:14:13;19.20;99.90
16643;DHT22;8435;52.184;5.406;2023-07-31T05:16:41;19.20;99.90
16643;DHT22;8435;52.184;5.406;2023-07-31T05:19:08;19.20;99.90
16643;DHT22;8435;52.184;5.406;2023-07-31T05:21:34;19.20;99.90
16643;DHT22;8435;52.184;5.406;2023-07-31T05:24:02;19.20;99.90
16643;DHT22;8435;52.184;5.406;2023-07-31T05:26:30;19.10;99.90
16643;DHT22;8435;52.184;5.406;2023-07-31T05:28:57;19.10;99.90
16643;DHT22;8435;52.184;5.406;2023-07-31T05:31:24;19.10;99.90
16643;DHT22;8435;52.184;5.406;2023-07-31T05:33:51;19.10;99.90
16643;DHT22;8435;52.184;5.406;2023-07-31T05:36:17;19.10;99.90
16643;DHT22;8435;52.184;5.406;2023-07-31T05:38:44;19.10;99.90
16643;DHT22;8435;52.184;5.406;2023-07-31T05:41:11;19.10;99.90
16643;DHT22;8435;52.184;5.406;2023-07-31T05:43:40;19.10;99.90
16643;DHT22;8435;52.184;5.406;2023-07-31T05:46:07;19.10;99.90
16643;DHT22;8435;52.184;5.406;2023-07-31T05:48:34;19.10;99.90
16643;DHT22;8435;52.184;5.406;2023-07-31T05:51:01;19.00;99.90
16643;DHT22;8435;52.184;5.406;2023-07-31T05:53:32;19.00;99.90
16643;DHT22;8435;52.184;5.406;2023-07-31T05:56:01;19.10;99.90
16643;DHT22;8435;52.184;5.406;2023-07-31T05:58:28;19.00;99.90
16643;DHT22;8435;52.184;5.406;2023-07-31T06:00:56;19.10;99.90
16643;DHT22;8435;52.184;5.406;2023-07-31T06:03:23;19.00;99.90
16643;DHT22;8435;52.184;5.406;2023-07-31T06:05:50;19.10;99.90
16643;DHT22;8435;52.184;5.406;2023-07-31T06:08:17;19.00;99.90
16643;DHT22;8435;52.184;5.406;2023-07-31T06:10:43;19.10;99.90
16643;DHT22;8435;52.184;5.406;2023-07-31T06:13:10;19.10;99.90
16643;DHT22;8435;52.184;5.406;2023-07-31T06:15:37;19.10;99.90
16643;DHT22;8435;52.184;5.406;2023-07-31T06:18:05;19.10;99.90
16643;DHT22;8435;52.184;5.406;2023-07-31T06:20:33;19.10;99.90
16643;DHT22;8435;52.184;5.406;2023-07-31T06:23:00;19.10;99.90
16643;DHT22;8435;52.184;5.406;2023-07-31T06:25:28;19.10;99.90
16643;DHT22;8435;52.184;5.406;2023-07-31T06:27:54;19.10;99.90
16643;DHT22;8435;52.184;5.406;2023-07-31T06:30:21;19.10;99.90
16643;DHT22;8435;52.184;5.406;2023-07-31T06:32:48;19.10;99.90
16643;DHT22;8435;52.184;5.406;2023-07-31T06:35:16;19.10;99.90
16643;DHT22;8435;52.184;5.406;2023-07-31T06:37:46;19.10;99.90
16643;DHT22;8435;52.184;5.406;2023-07-31T06:40:13;19.10;99.90
16643;DHT22;8435;52.184;5.406;2023-07-31T06:42:40;19.20;99.90
16643;DHT22;8435;52.184;5.406;2023-07-31T06:45:08;19.20;99.90
16643;DHT22;8435;52.184;5.406;2023-07-31T06:47:35;19.20;99.90
16643;DHT22;8435;52.184;5.406;2023-07-31T06:50:05;19.20;99.90
16643;DHT22;8435;52.184;5.406;2023-07-31T06:52:37;19.20;99.90
16643;DHT22;8435;52.184;5.406;2023-07-31T06:55:15;19.20;99.90
16643;DHT22;8435;52.184;5.406;2023-07-31T06:57:54;19.30;99.90
16643;DHT22;8435;52.184;5.406;2023-07-31T07:00:22;19.30;99.90
16643;DHT22;8435;52.184;5.406;2023-07-31T07:02:50;19.30;99.90
16643;DHT22;8435;52.184;5.406;2023-07-31T07:05:17;19.30;99.90
16643;DHT22;8435;52.184;5.406;2023-07-31T07:07:45;19.30;99.90
16643;DHT22;8435;52.184;5.406;2023-07-31T07:10:13;19.30;99.90
16643;DHT22;8435;52.184;5.406;2023-07-31T07:12:40;19.40;99.90
16643;DHT22;8435;52.184;5.406;2023-07-31T07:15:08;19.40;99.90
16643;DHT22;8435;52.184;5.406;2023-07-31T07:17:35;19.40;99.90
16643;DHT22;8435;52.184;5.406;2023-07-31T07:20:02;19.40;99.90
16643;DHT22;8435;52.184;5.406;2023-07-31T07:22:29;19.50;99.90
16643;DHT22;8435;52.184;5.406;2023-07-31T07:24:57;19.50;99.90
16643;DHT22;8435;52.184;5.406;2023-07-31T07:27:24;19.50;99.90
16643;DHT22;8435;52.184;5.406;2023-07-31T07:29:51;19.50;99.90
16643;DHT22;8435;52.184;5.406;2023-07-31T07:32:21;19.60;99.90
16643;DHT22;8435;52.184;5.406;2023-07-31T07:34:48;19.60;99.90
16643;DHT22;8435;52.184;5.406;2023-07-31T07:37:15;19.60;99.90
16643;DHT22;8435;52.184;5.406;2023-07-31T07:39:43;19.60;99.90
16643;DHT22;8435;52.184;5.406;2023-07-31T07:42:11;19.60;99.90
16643;DHT22;8435;52.184;5.406;2023-07-31T07:44:38;19.70;99.90
16643;DHT22;8435;52.184;5.406;2023-07-31T07:47:05;19.70;99.90
16643;DHT22;8435;52.184;5.406;2023-07-31T07:49:33;19.70;99.90
16643;DHT22;8435;52.184;5.406;2023-07-31T07:52:01;19.80;99.90
16643;DHT22;8435;52.184;5.406;2023-07-31T07:54:28;19.80;99.90
16643;DHT22;8435;52.184;5.406;2023-07-31T07:56:55;19.80;99.90
16643;DHT22;8435;52.184;5.406;2023-07-31T07:59:23;19.80;99.90
16643;DHT22;8435;52.184;5.406;2023-07-31T08:01:49;19.90;99.90
16643;DHT22;8435;52.184;5.406;2023-07-31T08:04:16;19.90;99.90
16643;DHT22;8435;52.184;5.406;2023-07-31T08:06:43;19.90;99.90
16643;DHT22;8435;52.184;5.406;2023-07-31T08:09:10;20.00;99.90
16643;DHT22;8435;52.184;5.406;2023-07-31T08:11:37;20.00;99.90
16643;DHT22;8435;52.184;5.406;2023-07-31T08:14:04;20.00;99.90
16643;DHT22;8435;52.184;5.406;2023-07-31T08:16:32;20.10;99.90
16643;DHT22;8435;52.184;5.406;2023-07-31T08:19:07;20.10;99.90
16643;DHT22;8435;52.184;5.406;2023-07-31T08:21:34;20.20;99.90
16643;DHT22;8435;52.184;5.406;2023-07-31T08:24:00;20.20;99.90
16643;DHT22;8435;52.184;5.406;2023-07-31T08:26:27;20.30;99.90
16643;DHT22;8435;52.184;5.406;2023-07-31T08:28:54;20.30;99.90
16643;DHT22;8435;52.184;5.406;2023-07-31T08:31:21;20.30;99.90
16643;DHT22;8435;52.184;5.406;2023-07-31T08:33:52;20.40;99.90
16643;DHT22;8435;52.184;5.406;2023-07-31T08:36:19;20.40;99.90
16643;DHT22;8435;52.184;5.406;2023-07-31T08:38:46;20.40;99.90
16643;DHT22;8435;52.184;5.406;2023-07-31T08:41:12;20.40;99.90
16643;DHT22;8435;52.184;5.406;2023-07-31T08:43:44;20.50;99.90
16643;DHT22;8435;52.184;5.406;2023-07-31T08:46:11;20.50;99.90
16643;DHT22;8435;52.184;5.406;2023-07-31T08:48:41;20.50;99.90
16643;DHT22;8435;52.184;5.406;2023-07-31T08:51:11;20.60;99.90
16643;DHT22;8435;52.184;5.406;2023-07-31T08:53:37;20.60;99.90
16643;DHT22;8435;52.184;5.406;2023-07-31T08:56:05;20.60;99.90
16643;DHT22;8435;52.184;5.406;2023-07-31T08:58:36;20.60;99.90
16643;DHT22;8435;52.184;5.406;2023-07-31T09:01:04;20.70;99.90
16643;DHT22;8435;52.184;5.406;2023-07-31T09:03:34;20.70;99.90
16643;DHT22;8435;52.184;5.406;2023-07-31T09:06:02;20.70;99.90
16643;DHT22;8435;52.184;5.406;2023-07-31T09:08:33;20.80;99.90
16643;DHT22;8435;52.184;5.406;2023-07-31T09:11:01;20.80;99.90
16643;DHT22;8435;52.184;5.406;2023-07-31T09:13:29;20.90;99.90
16643;DHT22;8435;52.184;5.406;2023-07-31T09:15:57;21.00;99.90
16643;DHT22;8435;52.184;5.406;2023-07-31T09:18:24;21.00;99.90
16643;DHT22;8435;52.184;5.406;2023-07-31T09:21:00;21.00;99.90
16643;DHT22;8435;52.184;5.406;2023-07-31T09:23:41;21.10;99.90
16643;DHT22;8435;52.184;5.406;2023-07-31T09:26:08;21.10;99.90
16643;DHT22;8435;52.184;5.406;2023-07-31T09:28:36;21.10;99.90
16643;DHT22;8435;52.184;5.406;2023-07-31T09:31:04;21.10;99.90
16643;DHT22;8435;52.184;5.406;2023-07-31T09:33:31;21.10;99.90
16643;DHT22;8435;52.184;5.406;2023-07-31T09:35:59;21.20;99.90
16643;DHT22;8435;52.184;5.406;2023-07-31T09:38:27;21.20;99.90
16643;DHT22;8435;52.184;5.406;2023-07-31T09:40:59;21.20;99.90
16643;DHT22;8435;52.184;5.406;2023-07-31T09:43:26;21.30;99.90
16643;DHT22;8435;52.184;5.406;2023-07-31T09:45:55;21.30;99.90
16643;DHT22;8435;52.184;5.406;2023-07-31T09:48:24;21.30;99.90
16643;DHT22;8435;52.184;5.406;2023-07-31T09:50:56;21.40;99.90
16643;DHT22;8435;52.184;5.406;2023-07-31T09:53:30;21.50;99.90
16643;DHT22;8435;52.184;5.406;2023-07-31T09:56:00;21.50;99.90
16643;DHT22;8435;52.184;5.406;2023-07-31T09:58:28;21.60;99.90
16643;DHT22;8435;52.184;5.406;2023-07-31T10:00:57;21.60;99.90
16643;DHT22;8435;52.184;5.406;2023-07-31T10:03:25;21.60;99.90
16643;DHT22;8435;52.184;5.406;2023-07-31T10:05:53;21.60;99.90
16643;DHT22;8435;52.184;5.406;2023-07-31T10:08:26;21.70;99.90
16643;DHT22;8435;52.184;5.406;2023-07-31T10:10:55;21.70;99.90
16643;DHT22;8435;52.184;5.406;2023-07-31T10:13:27;21.70;99.90
16643;DHT22;8435;52.184;5.406;2023-07-31T10:15:58;21.70;99.90
16643;DHT22;8435;52.184;5.406;2023-07-31T10:18:30;21.70;99.90
16643;DHT22;8435;52.184;5.406;2023-07-31T10:20:58;21.70;99.90
16643;DHT22;8435;52.184;5.406;2023-07-31T10:23:25;21.70;99.90
16643;DHT22;8435;52.184;5.406;2023-07-31T10:25:53;21.70;99.90
16643;DHT22;8435;52.184;5.406;2023-07-31T10:28:21;21.70;99.90
16643;DHT22;8435;52.184;5.406;2023-07-31T10:30:52;21.70;99.90
16643;DHT22;8435;52.184;5.406;2023-07-31T10:33:21;21.80;99.90
16643;DHT22;8435;52.184;5.406;2023-07-31T10:35:48;21.80;99.90
16643;DHT22;8435;52.184;5.406;2023-07-31T10:38:15;21.80;99.90
16643;DHT22;8435;52.184;5.406;2023-07-31T10:40:45;21.90;99.90
16643;DHT22;8435;52.184;5.406;2023-07-31T10:43:24;21.90;99.90
16643;DHT22;8435;52.184;5.406;2023-07-31T10:45:53;21.80;99.90
16643;DHT22;8435;52.184;5.406;2023-07-31T10:48:20;21.90;99.90
16643;DHT22;8435;52.184;5.406;2023-07-31T10:50:49;21.90;99.90
16643;DHT22;8435;52.184;5.406;2023-07-31T10:53:23;21.90;99.90
16643;DHT22;8435;52.184;5.406;2023-07-31T10:55:50;21.90;99.90
16643;DHT22;8435;52.184;5.406;2023-07-31T10:58:19;21.90;99.90
16643;DHT22;8435;52.184;5.406;2023-07-31T11:00:46;21.90;99.90
16643;DHT22;8435;52.184;5.406;2023-07-31T11:03:16;21.90;99.90
16643;DHT22;8435;52.184;5.406;2023-07-31T11:05:53;21.90;99.90
16643;DHT22;8435;52.184;5.406;2023-07-31T11:08:27;21.80;99.90
16643;DHT22;8435;52.184;5.406;2023-07-31T11:11:06;21.80;99.90
16643;DHT22;8435;52.184;5.406;2023-07-31T11:13:40;21.80;99.90
16643;DHT22;8435;52.184;5.406;2023-07-31T11:16:07;21.80;99.90
16643;DHT22;8435;52.184;5.406;2023-07-31T11:18:37;21.80;99.90
16643;DHT22;8435;52.184;5.406;2023-07-31T11:21:04;21.80;99.90
16643;DHT22;8435;52.184;5.406;2023-07-31T11:23:31;21.80;99.90
16643;DHT22;8435;52.184;5.406;2023-07-31T11:25:59;21.80;99.90
16643;DHT22;8435;52.184;5.406;2023-07-31T11:28:31;21.90;99.90
16643;DHT22;8435;52.184;5.406;2023-07-31T11:30:58;21.90;99.90
16643;DHT22;8435;52.184;5.406;2023-07-31T11:33:25;22.00;99.90
16643;DHT22;8435;52.184;5.406;2023-07-31T11:35:54;22.00;99.90
16643;DHT22;8435;52.184;5.406;2023-07-31T11:38:24;22.00;99.90
16643;DHT22;8435;52.184;5.406;2023-07-31T11:40:52;22.00;99.90
16643;DHT22;8435;52.184;5.406;2023-07-31T11:43:19;22.00;99.90
16643;DHT22;8435;52.184;5.406;2023-07-31T11:45:47;22.10;99.90
16643;DHT22;8435;52.184;5.406;2023-07-31T11:48:22;22.10;99.90
16643;DHT22;8435;52.184;5.406;2023-07-31T11:50:50;22.10;99.90
16643;DHT22;8435;52.184;5.406;2023-07-31T11:53:22;22.20;99.90
16643;DHT22;8435;52.184;5.406;2023-07-31T11:55:50;22.20;99.90
16643;DHT22;8435;52.184;5.406;2023-07-31T11:58:18;22.20;99.90
16643;DHT22;8435;52.184;5.406;2023-07-31T12:00:45;22.20;99.90
16643;DHT22;8435;52.184;5.406;2023-07-31T12:03:12;22.20;99.90
16643;DHT22;8435;52.184;5.406;2023-07-31T12:05:39;22.20;99.90
16643;DHT22;8435;52.184;5.406;2023-07-31T12:08:10;22.20;99.90
16643;DHT22;8435;52.184;5.406;2023-07-31T12:10:40;22.10;99.90
16643;DHT22;8435;52.184;5.406;2023-07-31T12:13:12;22.10;99.90
16643;DHT22;8435;52.184;5.406;2023-07-31T12:15:40;22.10;99.90
16643;DHT22;8435;52.184;5.406;2023-07-31T12:18:10;22.00;99.90
16643;DHT22;8435;52.184;5.406;2023-07-31T12:20:41;22.00;99.90
16643;DHT22;8435;52.184;5.406;2023-07-31T12:23:17;22.00;99.90
16643;DHT22;8435;52.184;5.406;2023-07-31T12:25:54;22.00;99.90
16643;DHT22;8435;52.184;5.406;2023-07-31T12:28:26;21.90;99.90
16643;DHT22;8435;52.184;5.406;2023-07-31T12:30:57;21.90;99.90
16643;DHT22;8435;52.184;5.406;2023-07-31T12:33:29;21.90;99.90
16643;DHT22;8435;52.184;5.406;2023-07-31T12:35:57;21.90;99.90
16643;DHT22;8435;52.184;5.406;2023-07-31T12:38:24;21.90;99.90
16643;DHT22;8435;52.184;5.406;2023-07-31T12:40:52;21.90;99.90
16643;DHT22;8435;52.184;5.406;2023-07-31T12:43:19;21.90;99.90
16643;DHT22;8435;52.184;5.406;2023-07-31T12:45:46;21.90;99.90
16643;DHT22;8435;52.184;5.406;2023-07-31T12:48:13;21.90;99.90
16643;DHT22;8435;52.184;5.406;2023-07-31T12:50:40;21.80;99.90
16643;DHT22;8435;52.184;5.406;2023-07-31T12:53:07;21.90;99.90
16643;DHT22;8435;52.184;5.406;2023-07-31T12:55:35;21.90;99.90
16643;DHT22;8435;52.184;5.406;2023-07-31T12:58:04;21.80;99.90
16643;DHT22;8435;52.184;5.406;2023-07-31T13:00:31;21.80;99.90
16643;DHT22;8435;52.184;5.406;2023-07-31T13:02:58;21.80;99.90
16643;DHT22;8435;52.184;5.406;2023-07-31T13:05:25;21.80;99.90
16643;DHT22;8435;52.184;5.406;2023-07-31T13:07:52;21.90;99.90
16643;DHT22;8435;52.184;5.406;2023-07-31T13:10:25;21.90;99.90
16643;DHT22;8435;52.184;5.406;2023-07-31T13:12:56;22.00;99.90
16643;DHT22;8435;52.184;5.406;2023-07-31T13:15:25;22.00;99.90
16643;DHT22;8435;52.184;5.406;2023-07-31T13:17:52;22.10;99.90
16643;DHT22;8435;52.184;5.406;2023-07-31T13:20:19;22.20;99.90
16643;DHT22;8435;52.184;5.406;2023-07-31T13:22:52;22.20;99.90
16643;DHT22;8435;52.184;5.406;2023-07-31T13:25:19;22.30;99.90
16643;DHT22;8435;52.184;5.406;2023-07-31T13:27:46;22.40;99.90
16643;DHT22;8435;52.184;5.406;2023-07-31T13:30:13;22.40;99.90
16643;DHT22;8435;52.184;5.406;2023-07-31T13:32:41;22.40;99.90
16643;DHT22;8435;52.184;5.406;2023-07-31T13:35:09;22.50;99.90
16643;DHT22;8435;52.184;5.406;2023-07-31T13:37:38;22.50;99.90
16643;DHT22;8435;52.184;5.406;2023-07-31T13:40:08;22.50;99.90
16643;DHT22;8435;52.184;5.406;2023-07-31T13:42:37;22.50;99.90
16643;DHT22;8435;52.184;5.406;2023-07-31T13:45:05;22.60;99.90
16643;DHT22;8435;52.184;5.406;2023-07-31T13:47:32;22.60;99.90
16643;DHT22;8435;52.184;5.406;2023-07-31T13:50:01;22.60;99.90
16643;DHT22;8435;52.184;5.406;2023-07-31T13:52:28;22.60;99.90
16643;DHT22;8435;52.184;5.406;2023-07-31T13:54:54;22.60;99.90
16643;DHT22;8435;52.184;5.406;2023-07-31T13:57:21;22.50;99.90
16643;DHT22;8435;52.184;5.406;2023-07-31T13:59:48;22.50;99.90
16643;DHT22;8435;52.184;5.406;2023-07-31T14:02:16;22.50;99.90
16643;DHT22;8435;52.184;5.406;2023-07-31T14:04:42;22.50;99.90
16643;DHT22;8435;52.184;5.406;2023-07-31T14:07:11;22.50;99.90
16643;DHT22;8435;52.184;5.406;2023-07-31T14:09:40;22.50;99.90
16643;DHT22;8435;52.184;5.406;2023-07-31T14:12:07;22.40;99.90
16643;DHT22;8435;52.184;5.406;2023-07-31T14:14:33;22.40;99.90
16643;DHT22;8435;52.184;5.406;2023-07-31T14:17:00;22.40;99.90
16643;DHT22;8435;52.184;5.406;2023-07-31T14:19:28;22.40;99.90
16643;DHT22;8435;52.184;5.406;2023-07-31T14:21:58;22.40;99.90
16643;DHT22;8435;52.184;5.406;2023-07-31T14:24:26;22.30;99.90
16643;DHT22;8435;52.184;5.406;2023-07-31T14:26:53;22.30;99.90
16643;DHT22;8435;52.184;5.406;2023-07-31T14:29:20;22.20;99.90
16643;DHT22;8435;52.184;5.406;2023-07-31T14:31:47;22.20;99.90
16643;DHT22;8435;52.184;5.406;2023-07-31T14:34:14;22.20;99.90
16643;DHT22;8435;52.184;5.406;2023-07-31T14:36:41;22.20;99.90
16643;DHT22;8435;52.184;5.406;2023-07-31T14:39:08;22.20;99.90
16643;DHT22;8435;52.184;5.406;2023-07-31T14:41:36;22.20;99.90
16643;DHT22;8435;52.184;5.406;2023-07-31T14:44:03;22.10;99.90
16643;DHT22;8435;52.184;5.406;2023-07-31T14:46:30;22.10;99.90
16643;DHT22;8435;52.184;5.406;2023-07-31T14:48:57;22.10;99.90
16643;DHT22;8435;52.184;5.406;2023-07-31T14:51:24;22.10;99.90
16643;DHT22;8435;52.184;5.406;2023-07-31T14:53:51;22.10;99.90
16643;DHT22;8435;52.184;5.406;2023-07-31T14:56:18;22.00;99.90
16643;DHT22;8435;52.184;5.406;2023-07-31T14:58:46;22.00;99.90
16643;DHT22;8435;52.184;5.406;2023-07-31T15:01:13;22.00;99.90
16643;DHT22;8435;52.184;5.406;2023-07-31T15:03:40;22.00;99.90
16643;DHT22;8435;52.184;5.406;2023-07-31T15:06:06;22.00;99.90
16643;DHT22;8435;52.184;5.406;2023-07-31T15:08:33;22.00;99.90
16643;DHT22;8435;52.184;5.406;2023-07-31T15:11:01;22.00;99.90
16643;DHT22;8435;52.184;5.406;2023-07-31T15:13:28;22.00;99.90
16643;DHT22;8435;52.184;5.406;2023-07-31T15:15:56;22.00;99.90
16643;DHT22;8435;52.184;5.406;2023-07-31T15:18:23;21.90;99.90
16643;DHT22;8435;52.184;5.406;2023-07-31T15:20:50;21.90;99.90
16643;DHT22;8435;52.184;5.406;2023-07-31T15:23:17;21.90;99.90
16643;DHT22;8435;52.184;5.406;2023-07-31T15:25:44;21.90;99.90
16643;DHT22;8435;52.184;5.406;2023-07-31T15:28:11;21.90;99.90
16643;DHT22;8435;52.184;5.406;2023-07-31T15:30:38;21.80;99.90
16643;DHT22;8435;52.184;5.406;2023-07-31T15:33:06;21.80;99.90
16643;DHT22;8435;52.184;5.406;2023-07-31T15:35:35;21.80;99.90
16643;DHT22;8435;52.184;5.406;2023-07-31T15:38:02;21.80;99.90
16643;DHT22;8435;52.184;5.406;2023-07-31T15:40:29;21.70;99.90
16643;DHT22;8435;52.184;5.406;2023-07-31T15:42:55;21.70;99.90
16643;DHT22;8435;52.184;5.406;2023-07-31T15:45:22;21.60;99.90
16643;DHT22;8435;52.184;5.406;2023-07-31T15:47:49;21.60;99.90
16643;DHT22;8435;52.184;5.406;2023-07-31T15:50:20;21.60;99.90
16643;DHT22;8435;52.184;5.406;2023-07-31T15:52:47;21.60;99.90